Enter the Airport ICAO Code

Search by Airport or City

Current Weather

SBGL | Rio de Janeiro–Galeão International Airport

Rio de Janeiro, Brazil

Last Update 51 Minutes Ago

Clear Sky

Temperature of 24 ºC

Light Winds from NorthEast

Temperature

24 ºC

Dew Point Temperature

20 ºC

Relative Humidity

78.47 %

Wind Direction

NorthEast (060º, Without Significant Variations)

Wind Velocity

7 km/h (04 kt)

Gusts

None

Visibility

No Significant Reductions

Sea Level Pressure

1011 hPa (Hectopascals)

Layers of Clouds

None

METAR SBGL 160700Z 06004KT CAVOK 24/20 Q1011

Weather Forecast

SBGL | Rio de Janeiro–Galeão International Airport

Rio de Janeiro, Brazil

Forecast valid for the next 28 Hours

From now on it is expected:

Clear Sky

Light to Moderate Winds from East

In 1 to 3 hours it is expected the begining of:

Light to Moderate Winds from North

In 6 to 8 hours it is expected the begining of:

Moderate Winds from East

In 9 to 11 hours it is expected the begining of:

Moderate Winds from SouthEast

In 14 to 16 hours it is expected the begining of:

Light to Moderate Winds from NorthEast

In 21 to 23 hours it is expected the begining of:

Light to Moderate Winds from NorthWest

Maximum Temperature

35 ºC in 9 Hours

Minimum Temperature

23 ºC in 0 Hours

TAF SBGL 160321Z 1606/1712 11005KT CAVOK TN23/1608Z TX35/1617Z BECMG 1609/1611 01005KT BECMG 1614/1616 07010KT BECMG 1617/1619 13010KT BECMG 1622/1624 06005KT BECMG 1705/1707 30005KT RMK PHI